Creston, Indiana
Current Conditions -  °F | °C
As of 1:55 AM on Sunday 26 Oct 2014 (Local Time) from KIGQ Reporting Station
Clear Clear  
Wind Chill: 42°   Ceiling: Unl
Heat Index: 42°   Visibility: 10mi
Dew Point: 32°   Wind: 0mph
Humidity: 68%   Direction: NA
Pressure: 29.99"   Gusts: NA
Location:  41.2585°N, 87.4193°W
Report Text: KIGQ 260655Z AUTO 00000KT 10SM CLR 05/00 A2999 RMK AO2 T00531001
Loading
Personal Weather Stations






























Interactive Weather Map
Tropical Storm Tracking
New forecast layout! Learn more

10-Day Weather Forecast

Advertisements
Track Severe Weather on mobile